Piamonte, Argentina
Current Conditions -  °F | °C
As of 3:00 AM on Monday 22 Dec 2014 (Local Time) from SAAR Reporting Station
Clear Clear  
Wind Chill: 57°   Ceiling: Unl
Heat Index: 57°   Visibility: 6mi
Dew Point: 43°   Wind: 7mph
Humidity: 59%   Direction: 230°SW
Pressure: 29.97"   Gusts: NA
Location:  32.13°S, 61.98°W
Report Text: SAAR 220600Z 23006KT CAVOK 14/06 Q1015
Loading
Personal Weather Stations






























Interactive Weather Map New forecast layout! Learn more

10-Day Weather Forecast

Advertisements
Track Severe Weather on mobile